Terminal Aerodrome Forecast
Issued by NWS Cleveland, OH

Home | Current Version | Previous Version | Text Only | Print | Product List | Glossary On
Versions: 1 2 3 4 5 6 7 8 9 10 11 12 13 14 15 16 17 18 19 20 21 22 23 24 25 26
000
FTUS41 KCLE 290528
TAFTOL
TAF
KTOL 290528Z 2906/3006 26008KT P6SM SCT250
     FM292100 24012KT P6SM VCTS SCT035CB BKN100
     FM300000 25008KT P6SM BKN150
     FM300200 25007KT P6SM SCT150=

USA.gov is the U.S. government's official web portal to all federal, state and local government web resources and services.